Koyo Maru — JD3232 — position and weather

sailwx.info

Track history (hours):
 
Tides and Currents Weather Stations Pressure Air Temp Water Temp Dewpoint Dewpoint Depression Visibility Wind Speed Wind Dir Waves Ship Positions

Koyo Maru

Last reported at 2017-Nov-19 00:30 UTC. Time now 2017-Nov-21 02:36 UTC.
Position N 34°05' E 135°01'.

Length 61 m; draft 4.5 m.

Type: Tanker. MMSI: 431002923.

Date/timePositionNaut miles runAvg speedWind from/ knotsBaromVisibWave heightAir tempDewpointWater temp
2017-Nov-19 00:30N 34°05' E 135°01'611.0
2017-Nov-19 00:00N 34°10' E 134°60'15 9.6
2017-Nov-18 22:27N 34°25' E 135°01'510.1
2017-Nov-18 21:58N 34°30' E 135°02'4 9.4
2017-Nov-18 21:30N 34°34' E 135°03'4 6.9
2017-Nov-18 20:56N 34°37' E 134°59'3 0.1
2017-Nov-17 03:39N 34°36' E 135°03'2 9.9
2017-Nov-17 03:30N 34°36' E 135°05'611.4
2017-Nov-17 03:00N 34°37' E 135°12'612.0
2017-Nov-17 02:30N 34°39' E 135°19'1 1.1
2017-Nov-17 02:00N 34°39' E 135°19'0 0.0
2017-Nov-17 01:30N 34°39' E 135°19'0 0.0
2017-Nov-17 00:59N 34°39' E 135°19'0 0.0
2017-Nov-17 00:30N 34°39' E 135°19'1 1.6
2017-Nov-17 00:00N 34°39' E 135°18'1 1.2
2017-Nov-16 23:30N 34°40' E 135°18'0 0.0
2017-Nov-16 23:00N 34°40' E 135°18'0 0.0
2017-Nov-16 22:30N 34°40' E 135°18'0 0.0
2017-Nov-16 22:00N 34°40' E 135°18'2 3.1
2017-Nov-16 21:30N 34°39' E 135°19'0 0.0
2017-Nov-16 21:00N 34°39' E 135°19'0 0.0
2017-Nov-16 20:30N 34°39' E 135°19'0 0.0
2017-Nov-16 20:00N 34°39' E 135°19'0 0.0
2017-Nov-16 19:30N 34°39' E 135°19'0 0.6
2017-Nov-16 19:00N 34°39' E 135°19'611.5
2017-Nov-16 18:30N 34°34' E 135°16'611.2
2017-Nov-16 18:00N 34°29' E 135°12'1111.0
2017-Nov-16 16:58N 34°19' E 135°05'510.5
2017-Nov-16 16:30N 34°15' E 135°02'611.1
2017-Nov-16 16:00N 34°09' E 135°02'227 7.8
2017-Nov-15 11:08N 34°59' E 139°31'110.1
2017-Nov-15 10:59N 34°60' E 139°32'510.3
2017-Nov-15 10:30N 35°03' E 139°37'510.7
2017-Nov-15 10:00N 35°06' E 139°41'611.6
2017-Nov-15 09:30N 35°11' E 139°45'611.8
2017-Nov-15 09:00N 35°17' E 139°45'611.7
2017-Nov-15 08:30N 35°23' E 139°42'611.7
2017-Nov-15 08:00N 35°27' E 139°47'4 7.8
2017-Nov-15 07:30N 35°31' E 139°46'0 0.0
2017-Nov-15 07:00N 35°31' E 139°46'0 0.0
2017-Nov-15 06:25N 35°31' E 139°46'0 0.0
2017-Nov-15 05:55N 35°31' E 139°46'0 0.0
2017-Nov-15 05:26N 35°31' E 139°46'0 0.0
2017-Nov-15 05:00N 35°31' E 139°46'0 0.0
2017-Nov-15 04:30N 35°31' E 139°46'0 0.0
2017-Nov-15 04:00N 35°31' E 139°46'3 6.2
2017-Nov-15 03:30N 35°30' E 139°50'1 1.3
2017-Nov-15 03:00N 35°30' E 139°50'0 0.0
2017-Nov-15 02:30N 35°30' E 139°50'0 0.0
2017-Nov-15 02:00N 35°30' E 139°50'0 0.0
2017-Nov-15 01:30N 35°30' E 139°50'0 0.0
2017-Nov-15 01:00N 35°30' E 139°50'0 0.0
2017-Nov-15 00:30N 35°30' E 139°50'0 0.0
2017-Nov-15 00:00N 35°30' E 139°50'0 0.0
2017-Nov-14 23:30N 35°30' E 139°50'0 0.0
2017-Nov-14 23:00N 35°30' E 139°50'0 0.0
2017-Nov-14 22:30N 35°30' E 139°50'0 0.1
2017-Nov-14 22:00N 35°30' E 139°50'0 0.1
2017-Nov-14 21:19N 35°30' E 139°50'0 0.2
2017-Nov-14 20:59N 35°30' E 139°50'0 0.0
2017-Nov-14 20:29N 35°30' E 139°50'0 0.0
2017-Nov-14 19:32N 35°30' E 139°50'0 0.0
2017-Nov-14 19:29N 35°30' E 139°50'0 0.1
2017-Nov-14 19:00N 35°30' E 139°50'0 0.0
2017-Nov-14 18:30N 35°30' E 139°50'0 0.1
2017-Nov-14 17:56N 35°30' E 139°50'0 0.0
2017-Nov-14 15:51N 35°30' E 139°50'0 0.0
2017-Nov-14 15:30N 35°30' E 139°50'0 0.0
2017-Nov-14 15:00N 35°30' E 139°50'0 0.1
2017-Nov-14 14:30N 35°30' E 139°50'0 0.0
2017-Nov-14 13:55N 35°30' E 139°50'0 0.1
2017-Nov-14 13:30N 35°30' E 139°50'0 0.0
2017-Nov-14 13:00N 35°30' E 139°50'0 0.0
2017-Nov-14 12:28N 35°30' E 139°50'0 0.0
2017-Nov-14 12:00N 35°30' E 139°50'0 0.0
2017-Nov-14 11:30N 35°30' E 139°50'0 0.0
2017-Nov-14 11:00N 35°30' E 139°50'0 0.0
2017-Nov-14 10:30N 35°30' E 139°50'0 0.0
2017-Nov-14 10:00N 35°30' E 139°50'0 0.0
2017-Nov-14 09:30N 35°30' E 139°50'0 0.0
2017-Nov-14 09:00N 35°30' E 139°50'0 0.0
2017-Nov-14 08:30N 35°30' E 139°50'0 0.0
2017-Nov-14 08:00N 35°30' E 139°50'0 0.0
2017-Nov-14 07:30N 35°30' E 139°50'0 0.0
2017-Nov-14 06:10N 35°30' E 139°50'0 0.0
2017-Nov-14 05:59N 35°30' E 139°50'0 0.0
2017-Nov-14 05:26N 35°30' E 139°50'0 0.0
2017-Nov-14 05:00N 35°30' E 139°50'0 0.0
2017-Nov-14 04:27N 35°30' E 139°50'0 0.0
2017-Nov-14 04:00N 35°30' E 139°50'0 0.0
2017-Nov-14 03:30N 35°30' E 139°50'0 0.0
2017-Nov-14 03:00N 35°30' E 139°50'0 0.0
2017-Nov-14 02:30N 35°30' E 139°50'0 0.6
2017-Nov-14 01:55N 35°30' E 139°50'4 9.2
2017-Nov-14 01:30N 35°32' E 139°46'0 0.3
2017-Nov-14 01:00N 35°32' E 139°45'0 0.0
2017-Nov-14 00:30N 35°32' E 139°45'0 0.0
2017-Nov-13 23:59N 35°32' E 139°45'0 0.0
2017-Nov-13 23:30N 35°32' E 139°45'0 0.0
2017-Nov-13 23:00N 35°32' E 139°45'2 4.0
2017-Nov-13 22:30N 35°30' E 139°47'2 0.1
2017-Nov-13 02:00N 35°32' E 139°45'0 0.0
2017-Nov-13 01:30N 35°32' E 139°45'0 0.0
2017-Nov-13 01:00N 35°32' E 139°45'1 1.0
2017-Nov-13 00:30N 35°31' E 139°46'2 3.4
2017-Nov-12 23:59N 35°30' E 139°48'2 4.0
2017-Nov-12 23:30N 35°30' E 139°50'0 0.0
2017-Nov-12 23:00N 35°30' E 139°50'0 0.0
2017-Nov-12 22:30N 35°30' E 139°50'0 0.0
2017-Nov-12 22:00N 35°30' E 139°50'0 0.0
2017-Nov-12 21:30N 35°30' E 139°50'0 0.0
2017-Nov-12 21:00N 35°30' E 139°50'0 0.0
2017-Nov-12 20:30N 35°30' E 139°50'0 0.0
2017-Nov-12 20:00N 35°30' E 139°50'0 0.0
2017-Nov-12 19:30N 35°30' E 139°50'0 0.0
2017-Nov-12 19:00N 35°30' E 139°50'0 0.0
2017-Nov-12 18:30N 35°30' E 139°50'0 0.0
2017-Nov-12 18:00N 35°30' E 139°50'0 0.0
2017-Nov-12 17:30N 35°30' E 139°50'0 0.0
2017-Nov-12 17:00N 35°30' E 139°50'0 0.0
2017-Nov-12 16:30N 35°30' E 139°50'0 0.0
2017-Nov-12 16:00N 35°30' E 139°50'0 0.0
2017-Nov-12 15:30N 35°30' E 139°50'0 0.0
2017-Nov-12 15:00N 35°30' E 139°50'0 0.1
2017-Nov-12 14:30N 35°30' E 139°50'0 0.1
2017-Nov-12 13:56N 35°30' E 139°50'0 0.0
2017-Nov-12 13:19N 35°30' E 139°50'0 0.1
2017-Nov-12 12:59N 35°30' E 139°50'4 8.1
2017-Nov-12 12:30N 35°27' E 139°48'612.2
2017-Nov-12 12:00N 35°21' E 139°45'510.7
2017-Nov-12 11:30N 35°16' E 139°46'611.3
2017-Nov-12 11:00N 35°10' E 139°46'611.2
2017-Nov-12 10:30N 35°06' E 139°42'612.1
2017-Nov-12 10:00N 35°02' E 139°36'612.4
2017-Nov-12 09:29N 34°58' E 139°30'  
Track history (hours):
 
Tides and Currents Weather Stations Pressure Air Temp Water Temp Dewpoint Dewpoint Depression Visibility Wind Speed Wind Dir Waves Ship Positions

Koyo Maru

Last reported at 2017-Nov-19 00:30 UTC. Time now 2017-Nov-21 02:36 UTC.
Position N 34°05' E 135°01'.

Length 61 m; draft 4.5 m.

Type: Tanker. MMSI: 431002923.

Date/timePositionNaut miles runAvg speedWind from/ knotsBaromVisibWave heightAir tempDewpointWater temp
2017-Nov-19 00:30N 34°05' E 135°01'611.0
2017-Nov-19 00:00N 34°10' E 134°60'15 9.6
2017-Nov-18 22:27N 34°25' E 135°01'510.1
2017-Nov-18 21:58N 34°30' E 135°02'4 9.4
2017-Nov-18 21:30N 34°34' E 135°03'4 6.9
2017-Nov-18 20:56N 34°37' E 134°59'3 0.1
2017-Nov-17 03:39N 34°36' E 135°03'2 9.9
2017-Nov-17 03:30N 34°36' E 135°05'611.4
2017-Nov-17 03:00N 34°37' E 135°12'612.0
2017-Nov-17 02:30N 34°39' E 135°19'1 1.1
2017-Nov-17 02:00N 34°39' E 135°19'0 0.0
2017-Nov-17 01:30N 34°39' E 135°19'0 0.0
2017-Nov-17 00:59N 34°39' E 135°19'0 0.0
2017-Nov-17 00:30N 34°39' E 135°19'1 1.6
2017-Nov-17 00:00N 34°39' E 135°18'1 1.2
2017-Nov-16 23:30N 34°40' E 135°18'0 0.0
2017-Nov-16 23:00N 34°40' E 135°18'0 0.0
2017-Nov-16 22:30N 34°40' E 135°18'0 0.0
2017-Nov-16 22:00N 34°40' E 135°18'2 3.1
2017-Nov-16 21:30N 34°39' E 135°19'0 0.0
2017-Nov-16 21:00N 34°39' E 135°19'0 0.0
2017-Nov-16 20:30N 34°39' E 135°19'0 0.0
2017-Nov-16 20:00N 34°39' E 135°19'0 0.0
2017-Nov-16 19:30N 34°39' E 135°19'0 0.6
2017-Nov-16 19:00N 34°39' E 135°19'611.5
2017-Nov-16 18:30N 34°34' E 135°16'611.2
2017-Nov-16 18:00N 34°29' E 135°12'1111.0
2017-Nov-16 16:58N 34°19' E 135°05'510.5
2017-Nov-16 16:30N 34°15' E 135°02'611.1
2017-Nov-16 16:00N 34°09' E 135°02'227 7.8
2017-Nov-15 11:08N 34°59' E 139°31'110.1
2017-Nov-15 10:59N 34°60' E 139°32'510.3
2017-Nov-15 10:30N 35°03' E 139°37'510.7
2017-Nov-15 10:00N 35°06' E 139°41'611.6
2017-Nov-15 09:30N 35°11' E 139°45'611.8
2017-Nov-15 09:00N 35°17' E 139°45'611.7
2017-Nov-15 08:30N 35°23' E 139°42'611.7
2017-Nov-15 08:00N 35°27' E 139°47'4 7.8
2017-Nov-15 07:30N 35°31' E 139°46'0 0.0
2017-Nov-15 07:00N 35°31' E 139°46'0 0.0
2017-Nov-15 06:25N 35°31' E 139°46'0 0.0
2017-Nov-15 05:55N 35°31' E 139°46'0 0.0
2017-Nov-15 05:26N 35°31' E 139°46'0 0.0
2017-Nov-15 05:00N 35°31' E 139°46'0 0.0
2017-Nov-15 04:30N 35°31' E 139°46'0 0.0
2017-Nov-15 04:00N 35°31' E 139°46'3 6.2
2017-Nov-15 03:30N 35°30' E 139°50'1 1.3
2017-Nov-15 03:00N 35°30' E 139°50'0 0.0
2017-Nov-15 02:30N 35°30' E 139°50'0 0.0
2017-Nov-15 02:00N 35°30' E 139°50'0 0.0
2017-Nov-15 01:30N 35°30' E 139°50'0 0.0
2017-Nov-15 01:00N 35°30' E 139°50'0 0.0
2017-Nov-15 00:30N 35°30' E 139°50'0 0.0
2017-Nov-15 00:00N 35°30' E 139°50'0 0.0
2017-Nov-14 23:30N 35°30' E 139°50'0 0.0
2017-Nov-14 23:00N 35°30' E 139°50'0 0.0
2017-Nov-14 22:30N 35°30' E 139°50'0 0.1
2017-Nov-14 22:00N 35°30' E 139°50'0 0.1
2017-Nov-14 21:19N 35°30' E 139°50'0 0.2
2017-Nov-14 20:59N 35°30' E 139°50'0 0.0
2017-Nov-14 20:29N 35°30' E 139°50'0 0.0
2017-Nov-14 19:32N 35°30' E 139°50'0 0.0
2017-Nov-14 19:29N 35°30' E 139°50'0 0.1
2017-Nov-14 19:00N 35°30' E 139°50'0 0.0
2017-Nov-14 18:30N 35°30' E 139°50'0 0.1
2017-Nov-14 17:56N 35°30' E 139°50'0 0.0
2017-Nov-14 15:51N 35°30' E 139°50'0 0.0
2017-Nov-14 15:30N 35°30' E 139°50'0 0.0
2017-Nov-14 15:00N 35°30' E 139°50'0 0.1
2017-Nov-14 14:30N 35°30' E 139°50'0 0.0
2017-Nov-14 13:55N 35°30' E 139°50'0 0.1
2017-Nov-14 13:30N 35°30' E 139°50'0 0.0
2017-Nov-14 13:00N 35°30' E 139°50'0 0.0
2017-Nov-14 12:28N 35°30' E 139°50'0 0.0
2017-Nov-14 12:00N 35°30' E 139°50'0 0.0
2017-Nov-14 11:30N 35°30' E 139°50'0 0.0
2017-Nov-14 11:00N 35°30' E 139°50'0 0.0
2017-Nov-14 10:30N 35°30' E 139°50'0 0.0
2017-Nov-14 10:00N 35°30' E 139°50'0 0.0
2017-Nov-14 09:30N 35°30' E 139°50'0 0.0
2017-Nov-14 09:00N 35°30' E 139°50'0 0.0
2017-Nov-14 08:30N 35°30' E 139°50'0 0.0
2017-Nov-14 08:00N 35°30' E 139°50'0 0.0
2017-Nov-14 07:30N 35°30' E 139°50'0 0.0
2017-Nov-14 06:10N 35°30' E 139°50'0 0.0
2017-Nov-14 05:59N 35°30' E 139°50'0 0.0
2017-Nov-14 05:26N 35°30' E 139°50'0 0.0
2017-Nov-14 05:00N 35°30' E 139°50'0 0.0
2017-Nov-14 04:27N 35°30' E 139°50'0 0.0
2017-Nov-14 04:00N 35°30' E 139°50'0 0.0
2017-Nov-14 03:30N 35°30' E 139°50'0 0.0
2017-Nov-14 03:00N 35°30' E 139°50'0 0.0
2017-Nov-14 02:30N 35°30' E 139°50'0 0.6
2017-Nov-14 01:55N 35°30' E 139°50'4 9.2
2017-Nov-14 01:30N 35°32' E 139°46'0 0.3
2017-Nov-14 01:00N 35°32' E 139°45'0 0.0
2017-Nov-14 00:30N 35°32' E 139°45'0 0.0
2017-Nov-13 23:59N 35°32' E 139°45'0 0.0
2017-Nov-13 23:30N 35°32' E 139°45'0 0.0
2017-Nov-13 23:00N 35°32' E 139°45'2 4.0
2017-Nov-13 22:30N 35°30' E 139°47'2 0.1
2017-Nov-13 02:00N 35°32' E 139°45'0 0.0
2017-Nov-13 01:30N 35°32' E 139°45'0 0.0
2017-Nov-13 01:00N 35°32' E 139°45'1 1.0
2017-Nov-13 00:30N 35°31' E 139°46'2 3.4
2017-Nov-12 23:59N 35°30' E 139°48'2 4.0
2017-Nov-12 23:30N 35°30' E 139°50'0 0.0
2017-Nov-12 23:00N 35°30' E 139°50'0 0.0
2017-Nov-12 22:30N 35°30' E 139°50'0 0.0
2017-Nov-12 22:00N 35°30' E 139°50'0 0.0
2017-Nov-12 21:30N 35°30' E 139°50'0 0.0
2017-Nov-12 21:00N 35°30' E 139°50'0 0.0
2017-Nov-12 20:30N 35°30' E 139°50'0 0.0
2017-Nov-12 20:00N 35°30' E 139°50'0 0.0
2017-Nov-12 19:30N 35°30' E 139°50'0 0.0
2017-Nov-12 19:00N 35°30' E 139°50'0 0.0
2017-Nov-12 18:30N 35°30' E 139°50'0 0.0
2017-Nov-12 18:00N 35°30' E 139°50'0 0.0
2017-Nov-12 17:30N 35°30' E 139°50'0 0.0
2017-Nov-12 17:00N 35°30' E 139°50'0 0.0
2017-Nov-12 16:30N 35°30' E 139°50'0 0.0
2017-Nov-12 16:00N 35°30' E 139°50'0 0.0
2017-Nov-12 15:30N 35°30' E 139°50'0 0.0
2017-Nov-12 15:00N 35°30' E 139°50'0 0.1
2017-Nov-12 14:30N 35°30' E 139°50'0 0.1
2017-Nov-12 13:56N 35°30' E 139°50'0 0.0
2017-Nov-12 13:19N 35°30' E 139°50'0 0.1
2017-Nov-12 12:59N 35°30' E 139°50'4 8.1
2017-Nov-12 12:30N 35°27' E 139°48'612.2
2017-Nov-12 12:00N 35°21' E 139°45'510.7
2017-Nov-12 11:30N 35°16' E 139°46'611.3
2017-Nov-12 11:00N 35°10' E 139°46'611.2
2017-Nov-12 10:30N 35°06' E 139°42'612.1
2017-Nov-12 10:00N 35°02' E 139°36'612.4
2017-Nov-12 09:29N 34°58' E 139°30'  

Dump ship's entire track history